Observations for NEW YORK JF KENNEDY, NY (JFK)

KJFK 260451Z 05010KT 10SM FEW090 17/12 A3023 RMK AO2 SLP237 T01720117 402500167 
KJFK 260351Z 05008KT 10SM FEW025 FEW090 18/14 A3023 RMK AO2 SLP235 T01830139
KJFK 260251Z 07011KT 10SM FEW065 19/14 A3023 RMK AO2 SLP238 T01890144 50002 
KJFK 260151Z 07011KT 10SM SCT065 19/14 A3024 RMK AO2 SLP241 T01940139   
KJFK 260051Z 07008KT 10SM BKN065 21/15 A3024 RMK AO2 SLP240 T02060150   
KJFK 252351Z 05010KT 10SM SCT037 BKN043 BKN065 22/15 A3023 RMK AO2 SLP236 T02170150 10250 20217 52006   
KJFK 252251Z 06011KT 10SM BKN041 BKN085 22/15 A3023 RMK AO2 SLP235 T02170150
KJFK 252151Z 05011KT 10SM SCT047 BKN060 22/14 A3021 RMK AO2 SLP231 T02220139
KJFK 252051Z 06017G22KT 10SM BKN047 BKN085 24/14 A3021 RMK AO2 SLP230 T02390139 56013   
KJFK 251951Z 06013KT 10SM BKN048 BKN080 24/13 A3022 RMK AO2 SLP232 T02440133
KJFK 251851Z 03014KT 10SM BKN050 BKN080 24/14 A3023 RMK AO2 SLP237 T02440139
KJFK 251751Z 05014G24KT 10SM SCT047 BKN055 BKN080 24/14 A3025 RMK AO2 SLP242 T02390139 10244 20189 58006
KJFK 251651Z 04015G22KT 10SM SCT042 BKN080 24/14 A3026 RMK AO2 SLP245 T02390139 
KJFK 251551Z 03016G21KT 10SM BKN037 BKN080 24/15 A3027 RMK AO2 SLP248 T02390150 
KJFK 251451Z 03018G23KT 10SM BKN031 BKN080 22/15 A3027 RMK AO2 SLP249 T02220150 51002   
KJFK 251351Z 05014G23KT 10SM BKN027 BKN075 21/15 A3027 RMK AO2 SLP248 T02110150 
KJFK 251307Z 03011KT 10SM BKN027 BKN070 21/15 A3027 RMK AO2 T02110150
KJFK 251251Z 06010G19KT 10SM SCT027 BKN075 21/15 A3027 RMK AO2 SLP249 SCT V BKN T02060150   
KJFK 251151Z 05012KT 10SM SCT022 SCT075 19/16 A3026 RMK AO2 SLP247 T01890156 10189 20167 53008  
KJFK 251051Z 04012KT 10SM FEW025 FEW075 17/16 A3024 RMK AO2 SLP240 T01720156
KJFK 250951Z 03010KT 10SM FEW025 FEW050 FEW075 17/16 A3023 RMK AO2 SLP238 T01670156 
KJFK 250851Z 03009KT 10SM FEW030 FEW055 FEW075 17/14 A3024 RMK AO2 SLP239 T01670144 57003   
KJFK 250751Z 03008KT 10SM FEW030 FEW055 SCT075 17/14 A3024 RMK AO2 SLP240 T01720144 
KJFK 250651Z 05006KT 10SM FEW055 SCT075 17/14 A3024 RMK AO2 SLP240 T01720144
KJFK 250551Z 06009KT 10SM SCT055 SCT075 18/15 A3025 RMK AO2 SLP242 T01830150 10206 20178 50000  
KJFK 250451Z 05006KT 10SM SCT055 BKN075 18/15 A3026 RMK AO2 SLP246 T01830150 402560172